sensor_id;sensor_type;location;lat;lon;timestamp;temperature;humidity
13569;DHT22;6856;51.460;7.158;2022-09-09T00:02:08;19.40;60.80
13569;DHT22;6856;51.460;7.158;2022-09-09T00:04:58;19.40;61.10
13569;DHT22;6856;51.460;7.158;2022-09-09T00:07:43;19.30;61.20
13569;DHT22;6856;51.460;7.158;2022-09-09T00:10:23;19.30;61.30
13569;DHT22;6856;51.460;7.158;2022-09-09T00:13:06;19.20;61.50
13569;DHT22;6856;51.460;7.158;2022-09-09T00:15:56;19.20;62.40
13569;DHT22;6856;51.460;7.158;2022-09-09T00:18:50;19.20;61.90
13569;DHT22;6856;51.460;7.158;2022-09-09T00:21:33;19.20;62.00
13569;DHT22;6856;51.460;7.158;2022-09-09T00:24:11;19.10;61.70
13569;DHT22;6856;51.460;7.158;2022-09-09T00:27:02;19.10;61.90
13569;DHT22;6856;51.460;7.158;2022-09-09T00:29:43;19.10;62.10
13569;DHT22;6856;51.460;7.158;2022-09-09T00:32:21;19.10;62.30
13569;DHT22;6856;51.460;7.158;2022-09-09T00:34:58;19.10;62.10
13569;DHT22;6856;51.460;7.158;2022-09-09T00:37:37;19.00;62.40
13569;DHT22;6856;51.460;7.158;2022-09-09T00:40:24;19.00;62.50
13569;DHT22;6856;51.460;7.158;2022-09-09T00:43:21;19.00;62.70
13569;DHT22;6856;51.460;7.158;2022-09-09T00:46:41;18.90;62.80
13569;DHT22;6856;51.460;7.158;2022-09-09T00:49:35;18.90;63.00
13569;DHT22;6856;51.460;7.158;2022-09-09T00:52:26;18.90;62.60
13569;DHT22;6856;51.460;7.158;2022-09-09T00:55:14;18.90;62.70
13569;DHT22;6856;51.460;7.158;2022-09-09T00:57:54;18.90;62.60
13569;DHT22;6856;51.460;7.158;2022-09-09T01:00:29;18.90;62.40
13569;DHT22;6856;51.460;7.158;2022-09-09T01:03:21;18.80;62.60
13569;DHT22;6856;51.460;7.158;2022-09-09T01:06:02;18.80;63.10
13569;DHT22;6856;51.460;7.158;2022-09-09T01:09:03;18.80;63.00
13569;DHT22;6856;51.460;7.158;2022-09-09T01:11:52;18.80;63.40
13569;DHT22;6856;51.460;7.158;2022-09-09T01:14:38;18.80;63.40
13569;DHT22;6856;51.460;7.158;2022-09-09T01:17:19;18.80;63.30
13569;DHT22;6856;51.460;7.158;2022-09-09T01:20:02;18.80;63.40
13569;DHT22;6856;51.460;7.158;2022-09-09T01:22:47;18.80;63.50
13569;DHT22;6856;51.460;7.158;2022-09-09T01:26:13;18.80;63.70
13569;DHT22;6856;51.460;7.158;2022-09-09T01:28:51;18.80;64.20
13569;DHT22;6856;51.460;7.158;2022-09-09T01:31:28;18.80;63.50
13569;DHT22;6856;51.460;7.158;2022-09-09T01:34:10;18.80;63.60
13569;DHT22;6856;51.460;7.158;2022-09-09T01:36:47;18.80;63.60
13569;DHT22;6856;51.460;7.158;2022-09-09T01:39:26;18.80;63.70
13569;DHT22;6856;51.460;7.158;2022-09-09T01:42:02;18.80;63.70
13569;DHT22;6856;51.460;7.158;2022-09-09T01:44:38;18.80;63.90
13569;DHT22;6856;51.460;7.158;2022-09-09T01:47:11;18.80;63.90
13569;DHT22;6856;51.460;7.158;2022-09-09T01:49:45;18.80;64.00
13569;DHT22;6856;51.460;7.158;2022-09-09T01:52:18;18.80;64.10
13569;DHT22;6856;51.460;7.158;2022-09-09T01:54:52;18.80;64.00
13569;DHT22;6856;51.460;7.158;2022-09-09T01:57:30;18.80;64.40
13569;DHT22;6856;51.460;7.158;2022-09-09T02:00:12;18.80;64.50
13569;DHT22;6856;51.460;7.158;2022-09-09T02:02:55;18.80;64.40
13569;DHT22;6856;51.460;7.158;2022-09-09T02:05:37;18.90;64.80
13569;DHT22;6856;51.460;7.158;2022-09-09T02:08:17;18.90;65.20
13569;DHT22;6856;51.460;7.158;2022-09-09T02:10:59;18.90;64.50
13569;DHT22;6856;51.460;7.158;2022-09-09T02:13:40;18.90;64.40
13569;DHT22;6856;51.460;7.158;2022-09-09T02:16:22;18.90;64.30
13569;DHT22;6856;51.460;7.158;2022-09-09T02:19:01;18.90;64.50
13569;DHT22;6856;51.460;7.158;2022-09-09T02:21:42;18.90;64.40
13569;DHT22;6856;51.460;7.158;2022-09-09T02:24:17;18.90;64.40
13569;DHT22;6856;51.460;7.158;2022-09-09T02:26:53;18.90;64.20
13569;DHT22;6856;51.460;7.158;2022-09-09T02:29:33;18.70;64.40
13569;DHT22;6856;51.460;7.158;2022-09-09T02:32:12;18.80;64.50
13569;DHT22;6856;51.460;7.158;2022-09-09T02:34:50;18.80;64.60
13569;DHT22;6856;51.460;7.158;2022-09-09T02:37:31;18.80;64.50
13569;DHT22;6856;51.460;7.158;2022-09-09T02:40:10;18.80;64.70
13569;DHT22;6856;51.460;7.158;2022-09-09T02:42:48;18.80;64.70
13569;DHT22;6856;51.460;7.158;2022-09-09T02:45:25;18.80;64.90
13569;DHT22;6856;51.460;7.158;2022-09-09T02:48:11;18.80;65.10
13569;DHT22;6856;51.460;7.158;2022-09-09T02:50:56;18.80;65.20
13569;DHT22;6856;51.460;7.158;2022-09-09T02:53:42;18.80;65.20
13569;DHT22;6856;51.460;7.158;2022-09-09T02:56:27;18.80;65.30
13569;DHT22;6856;51.460;7.158;2022-09-09T02:59:05;18.80;65.50
13569;DHT22;6856;51.460;7.158;2022-09-09T03:01:41;18.80;65.20
13569;DHT22;6856;51.460;7.158;2022-09-09T03:04:15;18.80;65.30
13569;DHT22;6856;51.460;7.158;2022-09-09T03:06:49;18.80;65.20
13569;DHT22;6856;51.460;7.158;2022-09-09T03:09:26;18.80;65.30
13569;DHT22;6856;51.460;7.158;2022-09-09T03:12:00;18.80;65.40
13569;DHT22;6856;51.460;7.158;2022-09-09T03:14:34;18.80;65.50
13569;DHT22;6856;51.460;7.158;2022-09-09T03:17:08;18.80;65.40
13569;DHT22;6856;51.460;7.158;2022-09-09T03:19:42;18.80;65.50
13569;DHT22;6856;51.460;7.158;2022-09-09T03:22:15;18.80;65.30
13569;DHT22;6856;51.460;7.158;2022-09-09T03:24:49;18.80;65.40
13569;DHT22;6856;51.460;7.158;2022-09-09T03:27:22;18.90;65.50
13569;DHT22;6856;51.460;7.158;2022-09-09T03:29:56;18.90;65.40
13569;DHT22;6856;51.460;7.158;2022-09-09T03:32:31;18.80;65.40
13569;DHT22;6856;51.460;7.158;2022-09-09T03:35:05;18.90;65.30
13569;DHT22;6856;51.460;7.158;2022-09-09T03:37:38;18.80;65.40
13569;DHT22;6856;51.460;7.158;2022-09-09T03:40:14;18.90;65.40
13569;DHT22;6856;51.460;7.158;2022-09-09T03:42:48;18.80;65.30
13569;DHT22;6856;51.460;7.158;2022-09-09T03:45:22;18.80;65.10
13569;DHT22;6856;51.460;7.158;2022-09-09T03:47:56;18.80;65.20
13569;DHT22;6856;51.460;7.158;2022-09-09T03:50:30;18.80;65.20
13569;DHT22;6856;51.460;7.158;2022-09-09T03:53:03;18.80;65.80
13569;DHT22;6856;51.460;7.158;2022-09-09T03:55:37;18.80;65.10
13569;DHT22;6856;51.460;7.158;2022-09-09T03:58:13;18.80;65.10
13569;DHT22;6856;51.460;7.158;2022-09-09T04:00:54;18.80;65.40
13569;DHT22;6856;51.460;7.158;2022-09-09T04:03:32;18.80;65.60
13569;DHT22;6856;51.460;7.158;2022-09-09T04:06:07;18.80;65.30
13569;DHT22;6856;51.460;7.158;2022-09-09T04:08:43;18.80;65.50
13569;DHT22;6856;51.460;7.158;2022-09-09T04:11:16;18.70;65.10
13569;DHT22;6856;51.460;7.158;2022-09-09T04:13:50;18.70;65.30
13569;DHT22;6856;51.460;7.158;2022-09-09T04:16:26;18.70;65.40
13569;DHT22;6856;51.460;7.158;2022-09-09T04:19:00;18.70;65.60
13569;DHT22;6856;51.460;7.158;2022-09-09T04:21:35;18.70;65.70
13569;DHT22;6856;51.460;7.158;2022-09-09T04:24:09;18.70;65.70
13569;DHT22;6856;51.460;7.158;2022-09-09T04:26:45;18.70;65.70
13569;DHT22;6856;51.460;7.158;2022-09-09T04:29:18;18.70;65.80
13569;DHT22;6856;51.460;7.158;2022-09-09T04:31:52;18.70;65.70
13569;DHT22;6856;51.460;7.158;2022-09-09T04:34:27;18.70;65.70
13569;DHT22;6856;51.460;7.158;2022-09-09T04:37:01;18.70;65.70
13569;DHT22;6856;51.460;7.158;2022-09-09T04:39:34;18.70;65.70
13569;DHT22;6856;51.460;7.158;2022-09-09T04:42:08;18.70;65.60
13569;DHT22;6856;51.460;7.158;2022-09-09T04:44:41;18.70;65.60
13569;DHT22;6856;51.460;7.158;2022-09-09T04:47:15;18.70;65.40
13569;DHT22;6856;51.460;7.158;2022-09-09T04:49:50;18.70;65.40
13569;DHT22;6856;51.460;7.158;2022-09-09T04:52:26;18.50;65.30
13569;DHT22;6856;51.460;7.158;2022-09-09T04:54:59;18.70;65.40
13569;DHT22;6856;51.460;7.158;2022-09-09T04:57:34;18.70;65.60
13569;DHT22;6856;51.460;7.158;2022-09-09T05:00:09;18.70;65.50
13569;DHT22;6856;51.460;7.158;2022-09-09T05:02:46;18.70;65.80
13569;DHT22;6856;51.460;7.158;2022-09-09T05:05:21;18.70;65.90
13569;DHT22;6856;51.460;7.158;2022-09-09T05:08:00;18.70;65.80
13569;DHT22;6856;51.460;7.158;2022-09-09T05:10:38;18.70;66.20
13569;DHT22;6856;51.460;7.158;2022-09-09T05:13:17;18.70;66.20
13569;DHT22;6856;51.460;7.158;2022-09-09T05:15:52;18.70;65.90
13569;DHT22;6856;51.460;7.158;2022-09-09T05:18:26;18.70;66.10
13569;DHT22;6856;51.460;7.158;2022-09-09T05:21:01;18.70;66.00
13569;DHT22;6856;51.460;7.158;2022-09-09T05:23:34;18.70;65.80
13569;DHT22;6856;51.460;7.158;2022-09-09T05:26:12;18.70;66.30
13569;DHT22;6856;51.460;7.158;2022-09-09T05:28:48;18.70;66.30
13569;DHT22;6856;51.460;7.158;2022-09-09T05:31:23;18.80;66.20
13569;DHT22;6856;51.460;7.158;2022-09-09T05:34:00;18.70;66.00
13569;DHT22;6856;51.460;7.158;2022-09-09T05:36:35;18.80;66.40
13569;DHT22;6856;51.460;7.158;2022-09-09T05:39:09;18.80;66.10
13569;DHT22;6856;51.460;7.158;2022-09-09T05:41:43;18.80;66.20
13569;DHT22;6856;51.460;7.158;2022-09-09T05:44:18;18.80;66.40
13569;DHT22;6856;51.460;7.158;2022-09-09T05:46:51;18.80;66.40
13569;DHT22;6856;51.460;7.158;2022-09-09T05:49:26;18.90;66.50
13569;DHT22;6856;51.460;7.158;2022-09-09T05:52:04;18.80;66.50
13569;DHT22;6856;51.460;7.158;2022-09-09T05:54:38;18.90;66.70
13569;DHT22;6856;51.460;7.158;2022-09-09T05:57:12;18.90;66.50
13569;DHT22;6856;51.460;7.158;2022-09-09T05:59:45;18.90;66.60
13569;DHT22;6856;51.460;7.158;2022-09-09T06:02:18;18.90;66.60
13569;DHT22;6856;51.460;7.158;2022-09-09T06:04:52;18.90;66.60
13569;DHT22;6856;51.460;7.158;2022-09-09T06:07:32;19.00;66.30
13569;DHT22;6856;51.460;7.158;2022-09-09T06:10:07;19.00;66.70
13569;DHT22;6856;51.460;7.158;2022-09-09T06:12:41;19.00;66.90
13569;DHT22;6856;51.460;7.158;2022-09-09T06:15:14;19.00;66.50
13569;DHT22;6856;51.460;7.158;2022-09-09T06:17:54;19.00;66.80
13569;DHT22;6856;51.460;7.158;2022-09-09T06:20:28;19.00;66.80
13569;DHT22;6856;51.460;7.158;2022-09-09T06:23:04;19.10;66.90
13569;DHT22;6856;51.460;7.158;2022-09-09T06:25:38;19.10;66.50
13569;DHT22;6856;51.460;7.158;2022-09-09T06:28:12;19.00;66.80
13569;DHT22;6856;51.460;7.158;2022-09-09T06:30:46;19.10;67.10
13569;DHT22;6856;51.460;7.158;2022-09-09T06:33:19;19.10;67.00
13569;DHT22;6856;51.460;7.158;2022-09-09T06:35:53;19.10;67.20
13569;DHT22;6856;51.460;7.158;2022-09-09T06:38:30;19.20;67.20
13569;DHT22;6856;51.460;7.158;2022-09-09T06:41:10;19.20;67.00
13569;DHT22;6856;51.460;7.158;2022-09-09T06:43:52;19.20;67.30
13569;DHT22;6856;51.460;7.158;2022-09-09T06:46:28;19.20;67.10
13569;DHT22;6856;51.460;7.158;2022-09-09T06:49:07;19.20;67.30
13569;DHT22;6856;51.460;7.158;2022-09-09T06:51:41;19.30;67.00
13569;DHT22;6856;51.460;7.158;2022-09-09T06:54:17;19.30;67.10
13569;DHT22;6856;51.460;7.158;2022-09-09T06:56:51;19.40;66.70
13569;DHT22;6856;51.460;7.158;2022-09-09T06:59:25;19.40;67.20
13569;DHT22;6856;51.460;7.158;2022-09-09T07:01:59;19.40;66.90
13569;DHT22;6856;51.460;7.158;2022-09-09T07:04:33;19.40;66.60
13569;DHT22;6856;51.460;7.158;2022-09-09T07:07:06;19.50;67.10
13569;DHT22;6856;51.460;7.158;2022-09-09T07:09:42;19.50;66.90
13569;DHT22;6856;51.460;7.158;2022-09-09T07:12:17;19.50;66.90
13569;DHT22;6856;51.460;7.158;2022-09-09T07:14:50;19.60;66.90
13569;DHT22;6856;51.460;7.158;2022-09-09T07:17:24;19.60;66.90
13569;DHT22;6856;51.460;7.158;2022-09-09T07:19:57;19.60;67.30
13569;DHT22;6856;51.460;7.158;2022-09-09T07:22:30;19.70;67.40
13569;DHT22;6856;51.460;7.158;2022-09-09T07:25:09;19.80;66.80
13569;DHT22;6856;51.460;7.158;2022-09-09T07:27:43;19.90;67.50
13569;DHT22;6856;51.460;7.158;2022-09-09T07:30:16;20.00;67.10
13569;DHT22;6856;51.460;7.158;2022-09-09T07:32:58;20.10;66.80
13569;DHT22;6856;51.460;7.158;2022-09-09T07:35:32;20.20;66.40
13569;DHT22;6856;51.460;7.158;2022-09-09T07:38:05;20.20;66.00
13569;DHT22;6856;51.460;7.158;2022-09-09T07:40:40;20.30;66.40
13569;DHT22;6856;51.460;7.158;2022-09-09T07:43:14;20.30;65.50
13569;DHT22;6856;51.460;7.158;2022-09-09T07:45:57;20.40;65.50
13569;DHT22;6856;51.460;7.158;2022-09-09T07:48:51;20.40;65.30
13569;DHT22;6856;51.460;7.158;2022-09-09T07:51:59;20.50;65.20
13569;DHT22;6856;51.460;7.158;2022-09-09T07:55:05;20.60;64.80
13569;DHT22;6856;51.460;7.158;2022-09-09T07:57:42;20.70;65.30
13569;DHT22;6856;51.460;7.158;2022-09-09T08:00:16;20.70;65.10
13569;DHT22;6856;51.460;7.158;2022-09-09T08:02:50;20.80;65.10
13569;DHT22;6856;51.460;7.158;2022-09-09T08:05:26;20.90;64.40
13569;DHT22;6856;51.460;7.158;2022-09-09T08:08:03;21.00;64.50
13569;DHT22;6856;51.460;7.158;2022-09-09T08:11:09;21.30;64.20
13569;DHT22;6856;51.460;7.158;2022-09-09T08:13:45;21.20;64.00
13569;DHT22;6856;51.460;7.158;2022-09-09T08:16:26;21.20;62.90
13569;DHT22;6856;51.460;7.158;2022-09-09T08:19:02;21.30;62.80
13569;DHT22;6856;51.460;7.158;2022-09-09T08:21:39;21.30;62.70
13569;DHT22;6856;51.460;7.158;2022-09-09T08:24:13;21.40;63.20
13569;DHT22;6856;51.460;7.158;2022-09-09T08:26:47;21.40;62.80
13569;DHT22;6856;51.460;7.158;2022-09-09T08:29:29;21.50;62.60
13569;DHT22;6856;51.460;7.158;2022-09-09T08:32:03;21.60;62.00
13569;DHT22;6856;51.460;7.158;2022-09-09T08:34:38;21.60;61.80
13569;DHT22;6856;51.460;7.158;2022-09-09T08:37:17;21.70;61.40
13569;DHT22;6856;51.460;7.158;2022-09-09T08:39:52;21.70;60.70
13569;DHT22;6856;51.460;7.158;2022-09-09T08:42:34;21.70;60.30
13569;DHT22;6856;51.460;7.158;2022-09-09T08:45:25;21.70;60.60
13569;DHT22;6856;51.460;7.158;2022-09-09T08:48:17;21.80;60.90
13569;DHT22;6856;51.460;7.158;2022-09-09T08:51:01;21.90;60.60
13569;DHT22;6856;51.460;7.158;2022-09-09T08:53:43;22.00;60.50
13569;DHT22;6856;51.460;7.158;2022-09-09T08:56:21;22.10;60.60
13569;DHT22;6856;51.460;7.158;2022-09-09T08:59:00;22.20;59.90
13569;DHT22;6856;51.460;7.158;2022-09-09T09:01:49;22.30;59.90
13569;DHT22;6856;51.460;7.158;2022-09-09T09:04:38;22.40;58.80
13569;DHT22;6856;51.460;7.158;2022-09-09T09:07:29;22.40;59.00
13569;DHT22;6856;51.460;7.158;2022-09-09T09:10:21;22.50;59.00
13569;DHT22;6856;51.460;7.158;2022-09-09T09:13:15;22.60;59.10
13569;DHT22;6856;51.460;7.158;2022-09-09T09:15:57;22.70;59.10
13569;DHT22;6856;51.460;7.158;2022-09-09T09:18:34;22.80;58.80
13569;DHT22;6856;51.460;7.158;2022-09-09T09:21:13;22.90;58.80
13569;DHT22;6856;51.460;7.158;2022-09-09T09:23:56;22.90;58.20
13569;DHT22;6856;51.460;7.158;2022-09-09T09:26:34;23.00;57.80
13569;DHT22;6856;51.460;7.158;2022-09-09T09:29:11;23.10;57.50
13569;DHT22;6856;51.460;7.158;2022-09-09T09:31:50;23.10;57.30
13569;DHT22;6856;51.460;7.158;2022-09-09T09:34:28;23.10;56.90
13569;DHT22;6856;51.460;7.158;2022-09-09T09:37:02;22.90;56.80
13569;DHT22;6856;51.460;7.158;2022-09-09T09:39:50;23.20;57.40
13569;DHT22;6856;51.460;7.158;2022-09-09T09:42:48;23.30;57.10
13569;DHT22;6856;51.460;7.158;2022-09-09T09:45:28;23.30;56.80
13569;DHT22;6856;51.460;7.158;2022-09-09T09:48:08;23.40;56.10
13569;DHT22;6856;51.460;7.158;2022-09-09T09:50:50;23.40;56.10
13569;DHT22;6856;51.460;7.158;2022-09-09T09:53:30;23.50;55.50
13569;DHT22;6856;51.460;7.158;2022-09-09T09:56:10;23.50;55.50
13569;DHT22;6856;51.460;7.158;2022-09-09T09:58:55;23.50;55.10
13569;DHT22;6856;51.460;7.158;2022-09-09T10:01:31;23.60;55.00
13569;DHT22;6856;51.460;7.158;2022-09-09T10:04:15;23.50;54.60
13569;DHT22;6856;51.460;7.158;2022-09-09T10:06:51;23.50;54.70
13569;DHT22;6856;51.460;7.158;2022-09-09T10:09:26;23.50;54.80
13569;DHT22;6856;51.460;7.158;2022-09-09T10:12:10;23.40;54.90
13569;DHT22;6856;51.460;7.158;2022-09-09T10:15:02;23.40;54.70
13569;DHT22;6856;51.460;7.158;2022-09-09T10:17:54;23.40;54.00
13569;DHT22;6856;51.460;7.158;2022-09-09T10:20:41;23.30;54.70
13569;DHT22;6856;51.460;7.158;2022-09-09T10:23:49;23.30;53.80
13569;DHT22;6856;51.460;7.158;2022-09-09T10:26:50;23.40;53.60
13569;DHT22;6856;51.460;7.158;2022-09-09T10:29:44;23.20;53.50
13569;DHT22;6856;51.460;7.158;2022-09-09T10:32:36;23.20;53.90
13569;DHT22;6856;51.460;7.158;2022-09-09T10:35:24;23.20;54.00
13569;DHT22;6856;51.460;7.158;2022-09-09T10:38:13;23.30;54.00
13569;DHT22;6856;51.460;7.158;2022-09-09T10:41:13;23.40;53.80
13569;DHT22;6856;51.460;7.158;2022-09-09T10:44:02;23.60;53.40
13569;DHT22;6856;51.460;7.158;2022-09-09T10:46:59;23.70;53.20
13569;DHT22;6856;51.460;7.158;2022-09-09T10:50:05;23.70;52.80
13569;DHT22;6856;51.460;7.158;2022-09-09T10:53:13;23.70;52.20
13569;DHT22;6856;51.460;7.158;2022-09-09T10:55:53;23.70;52.60
13569;DHT22;6856;51.460;7.158;2022-09-09T10:58:38;23.70;52.60
13569;DHT22;6856;51.460;7.158;2022-09-09T11:01:20;23.70;52.20
13569;DHT22;6856;51.460;7.158;2022-09-09T11:04:00;23.80;52.30
13569;DHT22;6856;51.460;7.158;2022-09-09T11:06:41;23.80;52.10
13569;DHT22;6856;51.460;7.158;2022-09-09T11:09:21;23.70;51.60
13569;DHT22;6856;51.460;7.158;2022-09-09T11:11:59;23.70;51.70
13569;DHT22;6856;51.460;7.158;2022-09-09T11:14:38;23.70;51.90
13569;DHT22;6856;51.460;7.158;2022-09-09T11:17:18;23.70;51.60
13569;DHT22;6856;51.460;7.158;2022-09-09T11:19:53;23.70;51.60
13569;DHT22;6856;51.460;7.158;2022-09-09T11:22:30;23.40;51.40
13569;DHT22;6856;51.460;7.158;2022-09-09T11:25:10;23.60;51.50
13569;DHT22;6856;51.460;7.158;2022-09-09T11:28:02;23.60;51.50
13569;DHT22;6856;51.460;7.158;2022-09-09T11:30:58;23.60;51.20
13569;DHT22;6856;51.460;7.158;2022-09-09T11:34:14;23.60;51.50
13569;DHT22;6856;51.460;7.158;2022-09-09T11:37:07;23.60;51.50
13569;DHT22;6856;51.460;7.158;2022-09-09T11:40:14;23.60;51.30
13569;DHT22;6856;51.460;7.158;2022-09-09T11:43:02;23.70;51.30
13569;DHT22;6856;51.460;7.158;2022-09-09T11:45:39;23.70;51.20
13569;DHT22;6856;51.460;7.158;2022-09-09T11:48:26;23.70;51.40
13569;DHT22;6856;51.460;7.158;2022-09-09T11:51:07;23.70;51.30
13569;DHT22;6856;51.460;7.158;2022-09-09T11:53:49;23.70;51.60
13569;DHT22;6856;51.460;7.158;2022-09-09T11:56:29;23.70;51.40
13569;DHT22;6856;51.460;7.158;2022-09-09T11:59:16;23.70;51.40
13569;DHT22;6856;51.460;7.158;2022-09-09T12:01:55;23.70;51.20
13569;DHT22;6856;51.460;7.158;2022-09-09T12:04:35;23.70;51.30
13569;DHT22;6856;51.460;7.158;2022-09-09T12:07:28;23.70;52.00
13569;DHT22;6856;51.460;7.158;2022-09-09T12:10:20;23.70;51.30
13569;DHT22;6856;51.460;7.158;2022-09-09T12:13:15;23.70;51.20
13569;DHT22;6856;51.460;7.158;2022-09-09T12:15:57;23.70;51.70
13569;DHT22;6856;51.460;7.158;2022-09-09T12:18:39;23.60;51.70
13569;DHT22;6856;51.460;7.158;2022-09-09T12:21:28;23.60;51.70
13569;DHT22;6856;51.460;7.158;2022-09-09T12:24:10;23.50;51.90
13569;DHT22;6856;51.460;7.158;2022-09-09T12:26:50;23.40;52.20
13569;DHT22;6856;51.460;7.158;2022-09-09T12:29:38;23.40;52.70
13569;DHT22;6856;51.460;7.158;2022-09-09T12:32:22;23.40;52.80
13569;DHT22;6856;51.460;7.158;2022-09-09T12:35:02;23.40;52.80
13569;DHT22;6856;51.460;7.158;2022-09-09T12:37:50;23.50;52.80
13569;DHT22;6856;51.460;7.158;2022-09-09T12:40:30;23.20;52.10
13569;DHT22;6856;51.460;7.158;2022-09-09T12:43:17;23.50;52.50
13569;DHT22;6856;51.460;7.158;2022-09-09T12:46:16;23.40;52.00
13569;DHT22;6856;51.460;7.158;2022-09-09T12:49:34;23.40;51.70
13569;DHT22;6856;51.460;7.158;2022-09-09T12:52:16;23.30;52.20
13569;DHT22;6856;51.460;7.158;2022-09-09T12:54:54;23.40;51.70
13569;DHT22;6856;51.460;7.158;2022-09-09T12:57:33;23.40;52.60
13569;DHT22;6856;51.460;7.158;2022-09-09T13:00:15;23.40;53.50
13569;DHT22;6856;51.460;7.158;2022-09-09T13:02:52;23.50;53.30
13569;DHT22;6856;51.460;7.158;2022-09-09T13:05:31;23.50;53.70
13569;DHT22;6856;51.460;7.158;2022-09-09T13:08:10;23.60;53.80
13569;DHT22;6856;51.460;7.158;2022-09-09T13:10:50;23.70;53.60
13569;DHT22;6856;51.460;7.158;2022-09-09T13:13:37;23.80;53.20
13569;DHT22;6856;51.460;7.158;2022-09-09T13:16:22;23.80;53.40
13569;DHT22;6856;51.460;7.158;2022-09-09T13:19:08;23.90;52.80
13569;DHT22;6856;51.460;7.158;2022-09-09T13:21:47;23.90;52.80
13569;DHT22;6856;51.460;7.158;2022-09-09T13:24:27;23.90;52.00
13569;DHT22;6856;51.460;7.158;2022-09-09T13:27:26;23.90;52.30
13569;DHT22;6856;51.460;7.158;2022-09-09T13:30:19;23.90;52.00
13569;DHT22;6856;51.460;7.158;2022-09-09T13:33:20;23.80;52.10
13569;DHT22;6856;51.460;7.158;2022-09-09T13:35:56;23.80;52.20
13569;DHT22;6856;51.460;7.158;2022-09-09T13:38:35;23.80;52.30
13569;DHT22;6856;51.460;7.158;2022-09-09T13:41:11;23.70;52.40
13569;DHT22;6856;51.460;7.158;2022-09-09T13:43:54;23.60;52.40
13569;DHT22;6856;51.460;7.158;2022-09-09T13:46:33;23.60;52.00
13569;DHT22;6856;51.460;7.158;2022-09-09T13:49:20;23.50;52.80
13569;DHT22;6856;51.460;7.158;2022-09-09T13:52:08;23.40;53.70
13569;DHT22;6856;51.460;7.158;2022-09-09T13:54:47;23.30;54.00
13569;DHT22;6856;51.460;7.158;2022-09-09T13:57:24;23.20;54.20
13569;DHT22;6856;51.460;7.158;2022-09-09T14:00:01;23.00;54.70
13569;DHT22;6856;51.460;7.158;2022-09-09T14:02:37;22.90;55.30
13569;DHT22;6856;51.460;7.158;2022-09-09T14:05:11;22.90;55.80
13569;DHT22;6856;51.460;7.158;2022-09-09T14:07:45;22.80;56.40
13569;DHT22;6856;51.460;7.158;2022-09-09T14:10:23;22.70;56.40
13569;DHT22;6856;51.460;7.158;2022-09-09T14:12:57;22.70;56.90
13569;DHT22;6856;51.460;7.158;2022-09-09T14:15:32;22.70;57.70
13569;DHT22;6856;51.460;7.158;2022-09-09T14:18:05;22.70;57.40
13569;DHT22;6856;51.460;7.158;2022-09-09T14:20:38;22.70;57.30
13569;DHT22;6856;51.460;7.158;2022-09-09T14:23:13;22.70;57.50
13569;DHT22;6856;51.460;7.158;2022-09-09T14:25:47;22.70;57.80
13569;DHT22;6856;51.460;7.158;2022-09-09T14:28:20;22.70;57.80
13569;DHT22;6856;51.460;7.158;2022-09-09T14:31:16;22.80;58.00
13569;DHT22;6856;51.460;7.158;2022-09-09T14:33:49;22.80;58.20
13569;DHT22;6856;51.460;7.158;2022-09-09T14:36:24;22.80;58.60
13569;DHT22;6856;51.460;7.158;2022-09-09T14:38:57;22.80;58.50
13569;DHT22;6856;51.460;7.158;2022-09-09T14:41:30;22.90;58.50
13569;DHT22;6856;51.460;7.158;2022-09-09T14:44:04;22.90;58.20
13569;DHT22;6856;51.460;7.158;2022-09-09T14:46:39;22.90;58.20
13569;DHT22;6856;51.460;7.158;2022-09-09T14:49:14;22.90;58.20
13569;DHT22;6856;51.460;7.158;2022-09-09T14:51:47;22.90;58.30
13569;DHT22;6856;51.460;7.158;2022-09-09T14:54:21;22.90;58.60
13569;DHT22;6856;51.460;7.158;2022-09-09T14:56:54;22.90;58.80
13569;DHT22;6856;51.460;7.158;2022-09-09T14:59:28;22.90;58.90
13569;DHT22;6856;51.460;7.158;2022-09-09T15:02:04;22.90;58.80
13569;DHT22;6856;51.460;7.158;2022-09-09T15:04:38;23.00;59.00
13569;DHT22;6856;51.460;7.158;2022-09-09T15:07:12;23.00;58.70
13569;DHT22;6856;51.460;7.158;2022-09-09T15:09:45;23.00;58.30
13569;DHT22;6856;51.460;7.158;2022-09-09T15:12:20;23.00;58.10
13569;DHT22;6856;51.460;7.158;2022-09-09T15:14:53;23.00;58.20
13569;DHT22;6856;51.460;7.158;2022-09-09T15:17:29;22.90;58.10
13569;DHT22;6856;51.460;7.158;2022-09-09T15:20:03;22.90;57.70
13569;DHT22;6856;51.460;7.158;2022-09-09T15:22:37;22.80;57.60
13569;DHT22;6856;51.460;7.158;2022-09-09T15:25:12;22.70;57.40
13569;DHT22;6856;51.460;7.158;2022-09-09T15:27:45;22.60;57.30
13569;DHT22;6856;51.460;7.158;2022-09-09T15:30:18;22.50;56.90
13569;DHT22;6856;51.460;7.158;2022-09-09T15:32:53;22.30;57.00
13569;DHT22;6856;51.460;7.158;2022-09-09T15:35:27;22.20;57.00
13569;DHT22;6856;51.460;7.158;2022-09-09T15:38:09;22.10;56.70
13569;DHT22;6856;51.460;7.158;2022-09-09T15:40:44;22.00;56.90
13569;DHT22;6856;51.460;7.158;2022-09-09T15:43:26;21.90;56.90
13569;DHT22;6856;51.460;7.158;2022-09-09T15:46:12;21.80;57.30
13569;DHT22;6856;51.460;7.158;2022-09-09T15:49:13;21.70;57.30
13569;DHT22;6856;51.460;7.158;2022-09-09T15:51:52;21.60;57.40
13569;DHT22;6856;51.460;7.158;2022-09-09T15:54:27;21.60;58.20
13569;DHT22;6856;51.460;7.158;2022-09-09T15:57:04;21.50;57.70
13569;DHT22;6856;51.460;7.158;2022-09-09T15:59:38;21.40;57.90
13569;DHT22;6856;51.460;7.158;2022-09-09T16:02:12;21.40;58.00
13569;DHT22;6856;51.460;7.158;2022-09-09T16:04:46;21.30;58.30
13569;DHT22;6856;51.460;7.158;2022-09-09T16:07:20;21.30;57.80
13569;DHT22;6856;51.460;7.158;2022-09-09T16:09:53;21.30;58.50
13569;DHT22;6856;51.460;7.158;2022-09-09T16:12:27;21.20;58.70
13569;DHT22;6856;51.460;7.158;2022-09-09T16:15:00;21.20;58.70
13569;DHT22;6856;51.460;7.158;2022-09-09T16:17:34;21.20;58.80
13569;DHT22;6856;51.460;7.158;2022-09-09T16:20:11;21.20;58.80
13569;DHT22;6856;51.460;7.158;2022-09-09T16:22:45;21.20;58.90
13569;DHT22;6856;51.460;7.158;2022-09-09T16:25:19;21.10;58.60
13569;DHT22;6856;51.460;7.158;2022-09-09T16:27:52;21.10;58.70
13569;DHT22;6856;51.460;7.158;2022-09-09T16:30:26;21.10;58.30
13569;DHT22;6856;51.460;7.158;2022-09-09T16:32:59;21.10;58.70
13569;DHT22;6856;51.460;7.158;2022-09-09T16:35:37;21.00;58.90
13569;DHT22;6856;51.460;7.158;2022-09-09T16:38:12;21.00;58.80
13569;DHT22;6856;51.460;7.158;2022-09-09T16:40:45;21.00;59.10
13569;DHT22;6856;51.460;7.158;2022-09-09T16:43:21;20.90;59.10
13569;DHT22;6856;51.460;7.158;2022-09-09T16:45:56;20.90;59.10
13569;DHT22;6856;51.460;7.158;2022-09-09T16:48:32;20.90;59.30
13569;DHT22;6856;51.460;7.158;2022-09-09T16:51:12;20.90;59.50
13569;DHT22;6856;51.460;7.158;2022-09-09T16:53:48;20.80;59.70
13569;DHT22;6856;51.460;7.158;2022-09-09T16:56:24;20.80;59.60
13569;DHT22;6856;51.460;7.158;2022-09-09T16:59:00;20.80;60.00
13569;DHT22;6856;51.460;7.158;2022-09-09T17:01:38;20.70;59.90
13569;DHT22;6856;51.460;7.158;2022-09-09T17:04:15;20.70;59.90
13569;DHT22;6856;51.460;7.158;2022-09-09T17:06:55;20.70;60.00